createdAt,value
2023-03-29T00:00:35.696Z,100788.47
2023-03-29T00:03:04.399Z,100665.44
2023-03-29T00:05:37.904Z,100704.25
2023-03-29T00:08:05.370Z,100682.56
2023-03-29T00:10:35.051Z,100713.53
2023-03-29T00:13:03.154Z,100702.34
2023-03-29T00:15:31.129Z,100743.94
2023-03-29T00:17:58.950Z,100737.03
2023-03-29T00:20:26.449Z,100744.03
2023-03-29T00:22:56.048Z,100687.91
2023-03-29T00:25:23.010Z,100706.78
2023-03-29T00:27:49.831Z,100724.13
2023-03-29T00:30:19.335Z,100745.84
2023-03-29T00:32:47.917Z,100714.16
2023-03-29T00:35:16.200Z,100741.97
2023-03-29T00:37:47.484Z,100700.50
2023-03-29T00:40:15.763Z,100720.50
2023-03-29T00:42:46.087Z,100728.88
2023-03-29T00:45:15.213Z,100724.53
2023-03-29T00:47:46.126Z,100655.50
2023-03-29T00:50:28.843Z,100627.78
2023-03-29T00:53:16.242Z,100719.03
2023-03-29T00:56:02.314Z,100723.31
2023-03-29T00:58:37.096Z,100718.00
2023-03-29T01:01:14.387Z,100717.91
2023-03-29T01:03:56.081Z,100685.09
2023-03-29T01:06:37.235Z,100692.81
2023-03-29T01:09:11.088Z,100646.66
2023-03-29T01:11:57.799Z,100704.22
2023-03-29T01:14:37.319Z,100703.06
2023-03-29T01:17:07.992Z,100708.41
2023-03-29T01:19:48.439Z,100644.47
2023-03-29T01:22:50.800Z,100612.69
2023-03-29T01:25:37.272Z,100643.84
2023-03-29T01:28:36.006Z,100597.13
2023-03-29T01:31:14.844Z,100676.38
2023-03-29T01:34:00.376Z,100668.34
2023-03-29T01:36:57.333Z,100626.91
2023-03-29T01:39:25.505Z,100581.97
2023-03-29T01:42:12.974Z,100660.41
2023-03-29T01:45:13.448Z,100629.47
2023-03-29T01:47:58.853Z,100665.56
2023-03-29T01:50:43.869Z,100655.94
2023-03-29T01:53:19.018Z,100555.84
2023-03-29T01:55:56.826Z,100656.84
2023-03-29T01:58:29.065Z,100618.03
2023-03-29T02:00:56.703Z,100557.66
2023-03-29T02:03:31.029Z,100662.22
2023-03-29T02:06:00.483Z,100594.69
2023-03-29T02:08:29.157Z,100659.44
2023-03-29T02:10:56.116Z,100642.03
2023-03-29T02:13:24.339Z,100645.59
2023-03-29T02:15:51.455Z,100637.69
2023-03-29T02:18:20.239Z,100583.47
2023-03-29T02:20:52.149Z,100613.69
2023-03-29T02:23:26.951Z,100555.97
2023-03-29T02:25:59.534Z,100606.19
2023-03-29T02:28:31.105Z,100550.94
2023-03-29T02:31:22.564Z,100574.19
2023-03-29T02:36:47.241Z,100570.69
2023-03-29T02:39:16.862Z,100601.69
2023-03-29T02:41:49.548Z,100556.75
2023-03-29T02:44:23.751Z,100593.88
2023-03-29T02:46:54.215Z,100561.97
2023-03-29T02:49:21.566Z,100568.97
2023-03-29T02:51:54.632Z,100553.59
2023-03-29T02:54:34.215Z,100511.22
2023-03-29T02:57:07.061Z,100546.59
2023-03-29T02:59:34.795Z,100582.91
2023-03-29T03:02:03.625Z,100541.41
2023-03-29T03:04:34.409Z,100600.81
2023-03-29T03:07:02.574Z,100535.78
2023-03-29T03:09:29.547Z,100559.03
2023-03-29T03:11:56.774Z,100595.16
2023-03-29T03:14:24.417Z,100542.34
2023-03-29T03:16:53.269Z,100537.25
2023-03-29T03:19:21.617Z,100583.00
2023-03-29T03:21:49.761Z,100589.38
2023-03-29T03:24:17.971Z,100549.47
2023-03-29T03:26:51.967Z,100582.97
2023-03-29T03:29:19.380Z,100488.88
2023-03-29T03:31:54.454Z,100539.66
2023-03-29T03:34:23.391Z,100568.84
2023-03-29T03:36:50.946Z,100570.38
2023-03-29T03:39:18.898Z,100518.88
2023-03-29T03:41:46.098Z,100518.03
2023-03-29T03:44:13.489Z,100502.41
2023-03-29T03:46:42.748Z,100572.22
2023-03-29T03:49:13.253Z,100573.09
2023-03-29T03:51:42.769Z,100576.69
2023-03-29T03:54:09.736Z,100555.59
2023-03-29T03:56:42.669Z,100568.81
2023-03-29T03:59:10.749Z,100569.84
2023-03-29T04:01:45.856Z,100571.53
2023-03-29T04:04:13.205Z,100474.81
2023-03-29T04:06:43.578Z,100555.94
2023-03-29T04:09:16.469Z,100512.72
2023-03-29T04:11:44.366Z,100562.47
2023-03-29T04:14:13.592Z,100510.13
2023-03-29T04:16:41.134Z,100519.66
2023-03-29T04:19:09.332Z,100556.66
2023-03-29T04:21:38.071Z,100552.59
2023-03-29T04:24:06.292Z,100456.88
2023-03-29T04:26:40.614Z,100513.94
2023-03-29T04:29:10.120Z,100564.91
2023-03-29T04:31:39.498Z,100562.34
2023-03-29T04:34:15.577Z,100526.09
2023-03-29T04:36:43.855Z,100495.69
2023-03-29T04:39:11.575Z,100530.53
2023-03-29T04:41:38.324Z,100485.66
2023-03-29T04:44:09.209Z,100487.50
2023-03-29T04:46:41.122Z,100534.75
2023-03-29T04:49:07.652Z,100545.88
2023-03-29T04:51:36.042Z,100537.06
2023-03-29T04:54:11.628Z,100542.94
2023-03-29T04:56:40.950Z,100558.53
2023-03-29T04:59:13.293Z,100487.56
2023-03-29T05:01:41.162Z,100524.88
2023-03-29T05:04:12.758Z,100545.38
2023-03-29T05:06:40.618Z,100549.69
2023-03-29T05:09:09.118Z,100542.66
2023-03-29T05:11:39.738Z,100533.38
2023-03-29T05:14:07.522Z,100543.84
2023-03-29T05:16:34.862Z,100539.22
2023-03-29T05:19:04.707Z,100546.13
2023-03-29T05:21:31.625Z,100517.63
2023-03-29T05:24:03.268Z,100538.38
2023-03-29T05:26:34.496Z,100483.16
2023-03-29T05:29:04.759Z,100545.06
2023-03-29T05:31:32.686Z,100542.25
2023-03-29T05:34:00.715Z,100519.22
2023-03-29T05:36:40.371Z,100552.19
2023-03-29T05:39:07.608Z,100498.16
2023-03-29T05:41:35.847Z,100560.19
2023-03-29T05:44:05.581Z,100539.44
2023-03-29T05:46:32.725Z,100445.41
2023-03-29T05:49:05.427Z,100513.16
2023-03-29T05:51:42.011Z,100531.75
2023-03-29T05:54:11.968Z,100529.94
2023-03-29T05:56:41.282Z,100497.13
2023-03-29T05:59:10.161Z,100481.31
2023-03-29T06:01:40.559Z,100451.03
2023-03-29T06:04:08.444Z,100487.09
2023-03-29T06:06:37.005Z,100512.16
2023-03-29T06:09:04.550Z,100500.75
2023-03-29T06:11:34.984Z,100489.41
2023-03-29T06:14:02.931Z,100540.75
2023-03-29T06:16:31.835Z,100483.44
2023-03-29T06:19:03.978Z,100544.56
2023-03-29T06:21:31.855Z,100456.66
2023-03-29T06:24:08.892Z,100548.78
2023-03-29T06:26:35.984Z,100502.13
2023-03-29T06:29:05.568Z,100510.56
2023-03-29T06:31:32.961Z,100495.84
2023-03-29T06:34:01.870Z,100554.88
2023-03-29T06:36:30.351Z,100547.91
2023-03-29T06:38:57.158Z,100489.72
2023-03-29T06:41:27.001Z,100558.75
2023-03-29T06:43:55.191Z,100469.75
2023-03-29T06:46:23.948Z,100554.88
2023-03-29T06:48:52.211Z,100555.00
2023-03-29T06:51:21.892Z,100544.00
2023-03-29T06:53:57.842Z,100461.88
2023-03-29T06:56:25.124Z,100498.34
2023-03-29T06:58:52.132Z,100470.34
2023-03-29T07:01:24.212Z,100495.97
2023-03-29T07:06:48.600Z,100540.09
2023-03-29T07:09:20.402Z,100557.28
2023-03-29T07:11:51.219Z,100509.66
2023-03-29T07:14:18.311Z,100558.56
2023-03-29T07:16:47.992Z,100558.28
2023-03-29T07:19:17.056Z,100515.13
2023-03-29T07:21:44.177Z,100561.63
2023-03-29T07:24:14.291Z,100559.75
2023-03-29T07:26:52.317Z,100503.06
2023-03-29T07:29:31.367Z,100572.13
2023-03-29T07:32:00.148Z,100540.06
2023-03-29T07:34:28.316Z,100518.06
2023-03-29T07:36:55.225Z,100558.22
2023-03-29T07:39:25.613Z,100583.06
2023-03-29T07:41:53.372Z,100565.31
2023-03-29T07:44:22.560Z,100580.66
2023-03-29T07:46:52.431Z,100557.81
2023-03-29T07:49:39.123Z,100583.63
2023-03-29T07:52:10.058Z,100552.41
2023-03-29T07:54:42.150Z,100528.31
2023-03-29T07:57:21.543Z,100586.63
2023-03-29T08:00:09.977Z,100538.19
2023-03-29T08:02:40.956Z,100493.44
2023-03-29T08:05:37.926Z,100569.19
2023-03-29T08:08:10.080Z,100572.03
2023-03-29T08:10:38.227Z,100592.75
2023-03-29T08:13:11.839Z,100561.31
2023-03-29T08:21:08.521Z,100568.16
2023-03-29T08:23:39.786Z,100587.06
2023-03-29T08:26:09.002Z,100586.34
2023-03-29T08:28:40.742Z,100582.13
2023-03-29T08:31:10.509Z,100562.34
2023-03-29T08:33:40.092Z,100525.66
2023-03-29T08:36:07.276Z,100551.53
2023-03-29T08:38:37.132Z,100543.44
2023-03-29T08:41:30.276Z,100560.63
2023-03-29T08:44:22.166Z,100526.41
2023-03-29T08:47:30.043Z,100565.91
2023-03-29T08:49:58.867Z,100546.09
2023-03-29T08:52:48.913Z,100560.00
2023-03-29T08:55:39.538Z,100503.50
2023-03-29T08:58:12.225Z,100553.69
2023-03-29T09:00:47.404Z,100516.75
2023-03-29T09:03:32.593Z,100492.81
2023-03-29T09:06:27.585Z,100472.38
2023-03-29T09:15:01.086Z,100542.75
2023-03-29T09:18:21.682Z,100571.66
2023-03-29T09:21:17.951Z,100550.34
2023-03-29T09:24:10.669Z,100565.94
2023-03-29T09:26:48.568Z,100514.94
2023-03-29T09:29:50.406Z,100539.09
2023-03-29T09:32:42.461Z,100540.19
2023-03-29T09:35:20.594Z,100563.19
2023-03-29T09:37:54.537Z,100527.63
2023-03-29T09:40:55.696Z,100536.13
2023-03-29T09:43:32.884Z,100553.03
2023-03-29T09:46:04.733Z,100549.13
2023-03-29T09:48:38.112Z,100528.78
2023-03-29T09:51:09.322Z,100557.44
2023-03-29T09:53:37.353Z,100546.44
2023-03-29T09:56:05.637Z,100493.03
2023-03-29T09:58:33.172Z,100522.56
2023-03-29T10:01:06.561Z,100507.78
2023-03-29T10:03:36.086Z,100563.06
2023-03-29T10:06:12.961Z,100570.63
2023-03-29T10:11:34.670Z,100545.09
2023-03-29T10:14:16.262Z,100555.97
2023-03-29T10:16:47.729Z,100555.59
2023-03-29T10:19:38.242Z,100486.22
2023-03-29T10:22:20.532Z,100504.25
2023-03-29T10:24:59.408Z,100555.63
2023-03-29T10:27:33.236Z,100547.31
2023-03-29T10:30:03.224Z,100543.00
2023-03-29T10:32:51.210Z,100543.66
2023-03-29T10:35:33.039Z,100501.78
2023-03-29T10:38:11.971Z,100475.13
2023-03-29T10:40:52.863Z,100422.94
2023-03-29T10:43:26.763Z,100497.56
2023-03-29T10:46:27.464Z,100459.88
2023-03-29T10:49:01.906Z,100509.03
2023-03-29T10:51:36.278Z,100483.09
2023-03-29T10:57:12.592Z,100486.81
2023-03-29T11:00:06.501Z,100465.00
2023-03-29T11:03:09.514Z,100511.09
2023-03-29T11:05:49.754Z,100506.00
2023-03-29T11:11:12.015Z,100510.97
2023-03-29T11:14:24.512Z,100505.44
2023-03-29T11:17:40.243Z,100503.06
2023-03-29T11:20:31.970Z,100510.06
2023-03-29T11:23:07.508Z,100496.66
2023-03-29T11:25:57.883Z,100498.13
2023-03-29T11:28:28.650Z,100479.94
2023-03-29T11:31:42.994Z,100502.28
2023-03-29T11:34:52.887Z,100502.69
2023-03-29T11:37:45.103Z,100499.44
2023-03-29T11:40:39.669Z,100491.53
2023-03-29T11:43:29.897Z,100487.09
2023-03-29T11:49:02.826Z,100478.19
2023-03-29T11:51:36.284Z,100464.78
2023-03-29T11:54:30.008Z,100449.09
2023-03-29T11:57:11.140Z,100473.50
2023-03-29T11:59:47.582Z,100447.22
2023-03-29T12:02:37.458Z,100468.41
2023-03-29T12:05:14.823Z,100449.09
2023-03-29T12:07:55.939Z,100478.28
2023-03-29T12:10:29.025Z,100445.53
2023-03-29T12:13:02.457Z,100456.59
2023-03-29T12:15:56.314Z,100460.19
2023-03-29T12:18:56.837Z,100448.22
2023-03-29T12:21:31.431Z,100418.38
2023-03-29T12:23:59.174Z,100390.81
2023-03-29T12:27:04.966Z,100444.97
2023-03-29T12:29:31.972Z,100439.94
2023-03-29T12:32:32.084Z,100417.16
2023-03-29T12:35:19.862Z,100419.56
2023-03-29T12:38:12.776Z,100437.38
2023-03-29T12:43:38.767Z,100420.72
2023-03-29T12:46:22.371Z,100421.94
2023-03-29T12:51:51.015Z,100381.75
2023-03-29T12:54:25.026Z,100363.13
2023-03-29T12:57:08.531Z,100412.16
2023-03-29T12:59:48.202Z,100397.72
2023-03-29T13:02:35.348Z,100410.78
2023-03-29T13:05:25.863Z,100405.19
2023-03-29T13:08:04.980Z,100404.56
2023-03-29T13:10:40.867Z,100396.00
2023-03-29T13:13:19.204Z,100383.88
2023-03-29T13:15:48.272Z,100396.41
2023-03-29T13:18:49.651Z,100390.84
2023-03-29T13:21:26.220Z,100365.84
2023-03-29T13:24:23.617Z,100379.56
2023-03-29T13:26:59.915Z,100366.06
2023-03-29T13:29:59.507Z,100375.41
2023-03-29T13:32:44.432Z,100349.59
2023-03-29T13:35:14.212Z,100368.75
2023-03-29T13:37:54.416Z,100359.34
2023-03-29T13:40:58.897Z,100356.31
2023-03-29T13:43:34.611Z,100361.06
2023-03-29T13:46:01.362Z,100361.59
2023-03-29T13:48:30.943Z,100353.75
2023-03-29T13:54:01.235Z,100332.72
2023-03-29T13:56:58.946Z,100345.31
2023-03-29T13:59:39.754Z,100344.16
2023-03-29T14:02:08.366Z,100342.84
2023-03-29T14:04:46.941Z,100341.00
2023-03-29T14:07:15.507Z,100277.81
2023-03-29T14:09:53.761Z,100323.09
2023-03-29T14:15:34.311Z,100340.09
2023-03-29T14:18:12.440Z,100335.69
2023-03-29T14:20:51.788Z,100327.28
2023-03-29T14:23:28.152Z,100321.59
2023-03-29T14:26:35.859Z,100264.97
2023-03-29T14:29:06.954Z,100247.50
2023-03-29T14:31:40.814Z,100313.91
2023-03-29T14:34:25.300Z,100282.91
2023-03-29T14:36:58.653Z,100271.53
2023-03-29T14:39:31.957Z,100298.88
2023-03-29T14:42:04.330Z,100260.25
2023-03-29T14:44:50.359Z,100267.94
2023-03-29T14:47:41.094Z,100266.03
2023-03-29T14:50:17.160Z,100283.41
2023-03-29T14:52:49.245Z,100229.84
2023-03-29T14:55:25.445Z,100274.22
2023-03-29T14:58:01.783Z,100255.00
2023-03-29T15:00:44.927Z,100245.63
2023-03-29T15:03:18.250Z,100273.56
2023-03-29T15:05:52.213Z,100242.47
2023-03-29T15:08:54.436Z,100172.31
2023-03-29T15:11:29.949Z,100250.59
2023-03-29T15:14:18.341Z,100243.09
2023-03-29T15:16:47.463Z,100211.69
2023-03-29T15:19:22.109Z,100200.28
2023-03-29T15:24:34.047Z,100244.25
2023-03-29T15:27:13.208Z,100243.47
2023-03-29T15:29:48.875Z,100210.41
2023-03-29T15:32:36.171Z,100246.03
2023-03-29T15:41:04.594Z,100172.75
2023-03-29T15:46:49.770Z,100167.28
2023-03-29T15:49:20.455Z,100177.97
2023-03-29T15:52:12.481Z,100235.13
2023-03-29T15:57:23.867Z,100226.78
2023-03-29T15:59:59.741Z,100148.53
2023-03-29T16:02:28.440Z,100140.84
2023-03-29T16:04:57.252Z,100206.25
2023-03-29T16:10:12.001Z,100207.09
2023-03-29T16:12:48.376Z,100200.47
2023-03-29T16:18:17.866Z,100201.16
2023-03-29T16:20:44.968Z,100158.41
2023-03-29T16:23:17.883Z,100149.41
2023-03-29T16:25:46.221Z,100167.06
2023-03-29T16:28:19.473Z,100186.78
2023-03-29T16:30:57.337Z,100098.63
2023-03-29T16:33:24.201Z,100198.91
2023-03-29T16:36:19.083Z,100135.72
2023-03-29T16:38:54.640Z,100099.56
2023-03-29T16:41:21.808Z,100160.06
2023-03-29T16:43:50.388Z,100180.53
2023-03-29T16:46:17.609Z,100171.59
2023-03-29T16:48:46.568Z,100154.94
2023-03-29T16:51:14.540Z,100153.44
2023-03-29T16:53:48.859Z,100126.97
2023-03-29T16:56:18.559Z,100171.06
2023-03-29T17:01:37.495Z,100142.00
2023-03-29T17:04:04.738Z,100147.59
2023-03-29T17:06:34.744Z,100180.13
2023-03-29T17:09:05.388Z,100175.03
2023-03-29T17:11:34.179Z,100170.84
2023-03-29T17:14:03.443Z,100146.75
2023-03-29T17:16:30.393Z,100153.31
2023-03-29T17:19:03.052Z,100157.81
2023-03-29T17:21:29.739Z,100157.41
2023-03-29T17:24:03.953Z,100158.25
2023-03-29T17:26:35.771Z,100161.91
2023-03-29T17:29:09.319Z,100135.19
2023-03-29T17:31:48.948Z,100149.94
2023-03-29T17:34:17.787Z,100134.25
2023-03-29T17:36:56.635Z,100121.38
2023-03-29T17:39:26.976Z,100141.50
2023-03-29T17:41:54.134Z,100128.72
2023-03-29T17:47:08.176Z,100149.09
2023-03-29T17:49:35.188Z,100101.53
2023-03-29T17:52:02.422Z,100105.16
2023-03-29T17:54:38.213Z,100146.09
2023-03-29T17:57:05.233Z,100154.41
2023-03-29T17:59:37.066Z,100161.78
2023-03-29T18:02:05.696Z,100071.22
2023-03-29T18:04:32.899Z,100127.31
2023-03-29T18:07:00.950Z,100129.25
2023-03-29T18:09:30.583Z,100134.88
2023-03-29T18:11:59.417Z,100127.22
2023-03-29T18:14:26.028Z,100132.00
2023-03-29T18:17:02.132Z,100127.72
2023-03-29T18:19:28.918Z,100129.84
2023-03-29T18:22:04.298Z,100140.75
2023-03-29T18:24:34.405Z,100074.41
2023-03-29T18:27:06.310Z,100134.50
2023-03-29T18:29:33.536Z,100156.66
2023-03-29T18:32:08.814Z,100133.59
2023-03-29T18:34:39.664Z,100106.25
2023-03-29T18:37:14.808Z,100127.38
2023-03-29T18:39:49.026Z,100144.25
2023-03-29T18:42:17.953Z,100133.47
2023-03-29T18:54:08.027Z,100128.00
2023-03-29T18:59:19.037Z,100073.00
2023-03-29T19:01:48.194Z,100121.84
2023-03-29T19:04:16.305Z,100115.66
2023-03-29T19:06:46.134Z,100099.47
2023-03-29T19:12:06.040Z,100036.91
2023-03-29T19:14:33.082Z,100130.56
2023-03-29T19:16:59.714Z,100130.09
2023-03-29T19:19:27.260Z,100136.28
2023-03-29T19:21:57.611Z,100117.59
2023-03-29T19:30:17.204Z,100146.44
2023-03-29T19:32:47.182Z,100095.78
2023-03-29T19:35:26.917Z,100088.41
2023-03-29T19:37:58.385Z,100104.13
2023-03-29T19:40:27.801Z,100114.78
2023-03-29T19:42:55.053Z,100136.25
2023-03-29T19:45:23.770Z,100084.25
2023-03-29T19:48:03.338Z,100120.53
2023-03-29T19:53:38.652Z,100056.25
2023-03-29T19:56:16.756Z,100082.44
2023-03-29T20:02:01.237Z,100043.16
2023-03-29T20:04:37.073Z,100099.63
2023-03-29T20:07:41.911Z,100000.53
2023-03-29T20:10:12.294Z,100096.41
2023-03-29T20:12:49.243Z,100089.38
2023-03-29T20:18:36.863Z,100026.84
2023-03-29T20:27:58.935Z,99957.09
2023-03-29T20:30:29.734Z,100038.84
2023-03-29T20:36:43.461Z,100006.97
2023-03-29T20:45:33.221Z,99934.91
2023-03-29T20:48:53.594Z,100025.59
2023-03-29T20:51:54.783Z,99982.03
2023-03-29T20:54:26.127Z,99998.22
2023-03-29T21:03:21.774Z,100011.16
2023-03-29T21:06:09.564Z,100010.03
2023-03-29T21:08:43.140Z,100007.63
2023-03-29T21:11:14.792Z,99990.75
2023-03-29T21:14:31.198Z,100004.81
2023-03-29T21:17:13.892Z,99940.19
2023-03-29T21:19:45.232Z,99991.00
2023-03-29T21:23:17.117Z,99991.97
2023-03-29T21:25:17.621Z,99925.38
2023-03-29T21:27:53.450Z,99894.28
2023-03-29T21:30:24.888Z,99983.03
2023-03-29T21:33:22.708Z,99890.47
2023-03-29T21:35:43.607Z,99918.91
2023-03-29T21:38:10.263Z,99970.13
2023-03-29T21:40:43.000Z,99934.06
2023-03-29T21:43:18.277Z,99882.69
2023-03-29T21:46:01.400Z,99858.16
2023-03-29T21:48:35.305Z,99931.50
2023-03-29T21:51:03.970Z,99940.72
2023-03-29T21:53:32.396Z,99941.78
2023-03-29T21:55:59.516Z,99963.56
2023-03-29T21:58:26.729Z,99920.03
2023-03-29T22:00:56.639Z,99963.03
2023-03-29T22:03:24.073Z,99903.19
2023-03-29T22:06:06.504Z,99956.47
2023-03-29T22:08:34.898Z,99922.53
2023-03-29T22:11:09.847Z,99895.91
2023-03-29T22:13:37.587Z,99901.56
2023-03-29T22:16:05.273Z,99935.03
2023-03-29T22:18:50.441Z,99921.19
2023-03-29T22:21:25.203Z,99874.28
2023-03-29T22:24:01.340Z,99861.69
2023-03-29T22:26:34.030Z,99928.63
2023-03-29T22:29:09.351Z,99915.91
2023-03-29T22:31:39.140Z,99888.78
2023-03-29T22:34:07.829Z,99882.19
2023-03-29T22:36:37.064Z,99914.88
2023-03-29T22:39:08.826Z,99934.59
2023-03-29T22:42:01.081Z,99901.22
2023-03-29T22:44:29.488Z,99902.47
2023-03-29T22:47:06.243Z,99907.03
2023-03-29T22:49:39.087Z,99919.81
2023-03-29T22:52:18.126Z,99879.16
2023-03-29T22:55:10.442Z,99917.06
2023-03-29T22:57:51.054Z,99939.84
2023-03-29T23:00:18.296Z,99933.69
2023-03-29T23:02:48.271Z,99893.75
2023-03-29T23:05:16.744Z,99906.00
2023-03-29T23:07:48.494Z,99926.38
2023-03-29T23:10:17.740Z,99891.47
2023-03-29T23:12:47.190Z,99924.09
2023-03-29T23:15:18.772Z,99915.56
2023-03-29T23:17:46.660Z,99865.69
2023-03-29T23:20:14.713Z,99907.88
2023-03-29T23:22:46.478Z,99882.28
2023-03-29T23:25:13.380Z,99904.94
2023-03-29T23:27:40.724Z,99906.47
2023-03-29T23:30:08.963Z,99895.84
2023-03-29T23:32:37.842Z,99895.84
2023-03-29T23:35:05.113Z,99825.50
2023-03-29T23:37:39.361Z,99869.19
2023-03-29T23:40:14.114Z,99860.38
2023-03-29T23:42:47.316Z,99867.50
2023-03-29T23:45:16.796Z,99874.16
2023-03-29T23:47:47.087Z,99870.81
2023-03-29T23:50:27.556Z,99844.28
2023-03-29T23:52:55.520Z,99855.44
2023-03-29T23:55:22.591Z,99858.94
2023-03-29T23:57:49.235Z,99861.69
